Time;durP1;ratioP1;P1;durP2;ratioP2;P2;SDS_P1;SDS_P2;PMS_P1;PMS_P2;Temp;Humidity;BMP_temperature;BMP_pressure;BME280_temperature;BME280_humidity;BME280_pressure;Samples;Min_cycle;Max_cycle;Signal;HPM_P1;HPM_P2
2021/07/09 00:01:46;;;;;;;2.45;1.10;;;;;;;17.74;99.65;95852.03;5031409;28;20259;-82
2021/07/09 00:04:14;;;;;;;0.93;0.93;;;;;;;17.86;99.26;95858.13;5031454;28;20814;-84
2021/07/09 00:06:43;;;;;;;0.93;0.90;;;;;;;17.84;98.46;95851.53;5031203;28;20222;-83
2021/07/09 00:09:12;;;;;;;0.80;0.80;;;;;;;17.93;98.21;95852.84;5030883;28;20202;-85
2021/07/09 00:11:46;;;;;;;0.95;0.90;;;;;;;17.97;97.73;95848.00;5031035;28;20216;-83
2021/07/09 00:14:15;;;;;;;1.05;0.95;;;;;;;18.03;97.64;95839.34;5032144;28;20202;-85
2021/07/09 00:16:42;;;;;;;0.75;0.75;;;;;;;18.02;97.64;95843.75;5033311;28;20600;-84
2021/07/09 00:19:09;;;;;;;0.82;0.82;;;;;;;18.05;97.15;95838.09;5032522;28;20205;-83
2021/07/09 00:21:37;;;;;;;1.52;0.80;;;;;;;18.03;96.92;95844.53;5032525;28;20226;-83
2021/07/09 00:24:06;;;;;;;0.90;0.90;;;;;;;18.01;96.25;95844.75;5031861;28;20229;-84
2021/07/09 00:26:33;;;;;;;0.80;0.80;;;;;;;17.93;96.07;95842.41;5031100;28;20202;-83
2021/07/09 00:28:59;;;;;;;1.95;0.90;;;;;;;17.93;96.79;95839.81;5031425;28;20198;-84
2021/07/09 00:31:29;;;;;;;1.45;0.93;;;;;;;17.97;96.45;95837.59;5031493;28;20238;-84
2021/07/09 00:33:55;;;;;;;0.70;0.70;;;;;;;17.99;96.67;95836.34;5032785;28;20256;-83
2021/07/09 00:36:22;;;;;;;1.00;0.88;;;;;;;17.97;96.68;95835.78;5032324;28;20205;-85
2021/07/09 00:38:49;;;;;;;1.65;0.90;;;;;;;17.89;96.33;95828.25;5032307;28;20206;-84
2021/07/09 00:41:17;;;;;;;1.42;0.98;;;;;;;17.91;96.04;95824.41;5031694;28;20225;-82
2021/07/09 00:43:43;;;;;;;0.85;0.73;;;;;;;17.84;96.11;95815.88;5032222;28;20218;-85
2021/07/09 00:46:10;;;;;;;1.02;0.80;;;;;;;17.88;95.88;95824.84;5033300;28;20202;-84
2021/07/09 00:48:37;;;;;;;1.35;0.90;;;;;;;17.88;95.83;95818.84;5032562;28;20197;-83
2021/07/09 00:51:06;;;;;;;0.70;0.70;;;;;;;17.80;95.95;95821.72;5032211;28;20765;-85
2021/07/09 00:53:33;;;;;;;2.67;0.90;;;;;;;17.80;95.95;95819.13;5035204;28;20206;-83
2021/07/09 00:56:01;;;;;;;1.05;0.75;;;;;;;17.70;95.79;95818.81;5037116;28;20230;-83
2021/07/09 00:58:29;;;;;;;0.90;0.80;;;;;;;17.73;96.26;95811.34;5036330;28;20206;-84
2021/07/09 01:00:56;;;;;;;1.45;0.80;;;;;;;17.71;95.98;95795.16;5034600;28;20222;-83
2021/07/09 01:03:22;;;;;;;0.90;0.90;;;;;;;17.67;96.27;95795.81;5034603;28;20596;-82
2021/07/09 01:05:49;;;;;;;1.02;1.02;;;;;;;17.59;96.48;95795.03;5035518;28;20229;-84
2021/07/09 01:08:15;;;;;;;0.90;0.80;;;;;;;17.44;96.66;95789.38;5035153;28;20206;-84
2021/07/09 01:10:43;;;;;;;1.77;0.85;;;;;;;17.39;97.36;95785.81;5034455;28;20757;-83
2021/07/09 01:13:09;;;;;;;0.85;0.85;;;;;;;17.33;98.00;95782.25;5035640;28;20198;-84
2021/07/09 01:15:37;;;;;;;0.95;0.75;;;;;;;17.40;97.33;95777.78;5035482;28;20204;-83
2021/07/09 01:18:05;;;;;;;1.73;0.85;;;;;;;17.51;96.96;95768.50;5037687;28;20233;-83
2021/07/09 01:20:32;;;;;;;0.80;0.80;;;;;;;17.46;97.76;95766.53;5037516;28;20218;-84
2021/07/09 01:22:59;;;;;;;0.80;0.80;;;;;;;17.39;97.14;95763.19;5036476;28;20198;-84
2021/07/09 01:25:28;;;;;;;0.80;0.80;;;;;;;17.31;97.23;95771.28;5036079;28;20232;-84
2021/07/09 01:27:57;;;;;;;0.88;0.82;;;;;;;17.29;98.02;95762.09;5036641;28;20586;-84
2021/07/09 01:30:25;;;;;;;1.05;0.80;;;;;;;17.28;98.05;95758.69;5036668;28;20249;-83
2021/07/09 01:32:52;;;;;;;1.15;0.80;;;;;;;17.23;97.99;95761.94;5036660;28;20202;-84
2021/07/09 01:35:21;;;;;;;2.15;0.90;;;;;;;17.19;98.02;95754.75;5035520;28;20681;-84
2021/07/09 01:37:55;;;;;;;1.05;0.95;;;;;;;17.29;97.99;95754.28;5035538;28;20212;-85
2021/07/09 01:40:21;;;;;;;1.02;0.98;;;;;;;17.27;97.50;95757.91;5036219;28;20218;-85
2021/07/09 01:42:49;;;;;;;2.25;1.02;;;;;;;17.23;97.33;95755.94;5035362;28;20206;-83
2021/07/09 01:45:16;;;;;;;2.25;0.80;;;;;;;17.26;97.54;95750.31;5036183;28;20233;-84
2021/07/09 01:47:43;;;;;;;0.80;0.80;;;;;;;17.33;97.72;95751.03;5035076;28;20701;-83
2021/07/09 01:50:10;;;;;;;1.23;0.73;;;;;;;17.31;97.00;95765.28;5036102;28;20226;-83
2021/07/09 01:52:37;;;;;;;1.42;0.80;;;;;;;17.30;97.87;95764.50;5035387;28;20599;-84
2021/07/09 01:55:06;;;;;;;1.00;0.80;;;;;;;17.31;97.09;95767.88;5035675;28;20213;-85
2021/07/09 01:57:33;;;;;;;1.42;0.80;;;;;;;17.36;97.20;95768.81;5035106;28;20229;-84
2021/07/09 02:00:05;;;;;;;0.70;0.70;;;;;;;17.38;97.14;95763.41;5035456;28;20232;-82
2021/07/09 02:02:32;;;;;;;0.95;0.80;;;;;;;17.31;96.65;95762.69;5034120;28;20213;-84
2021/07/09 02:04:58;;;;;;;0.82;0.73;;;;;;;17.24;96.69;95767.94;5034076;28;20241;-83
2021/07/09 02:07:26;;;;;;;0.60;0.60;;;;;;;17.19;96.89;95773.78;5034804;28;20206;-84
2021/07/09 02:09:55;;;;;;;2.63;0.80;;;;;;;17.18;97.65;95779.19;5035306;28;20225;-85
2021/07/09 02:12:24;;;;;;;0.70;0.70;;;;;;;17.15;97.57;95771.78;5034466;28;20203;-85
2021/07/09 02:14:52;;;;;;;0.55;0.55;;;;;;;17.03;97.35;95769.09;5034413;28;20194;-84
2021/07/09 02:17:22;;;;;;;0.60;0.60;;;;;;;17.16;98.01;95768.97;5034417;28;20198;-84
2021/07/09 02:19:50;;;;;;;1.25;0.68;;;;;;;17.23;96.91;95774.16;5034412;28;20206;-83
2021/07/09 02:22:18;;;;;;;0.65;0.60;;;;;;;17.17;96.61;95777.59;5034758;28;20203;-85
2021/07/09 02:24:47;;;;;;;0.77;0.50;;;;;;;17.08;96.47;95777.06;5034697;28;20226;-84
2021/07/09 02:27:13;;;;;;;1.15;0.60;;;;;;;17.09;96.96;95783.88;5034189;28;20202;-84
2021/07/09 02:29:41;;;;;;;0.50;0.50;;;;;;;16.96;97.57;95781.34;5035218;28;20773;-84
2021/07/09 02:32:10;;;;;;;0.60;0.60;;;;;;;16.90;97.05;95787.41;5033488;28;20586;-83
2021/07/09 02:34:38;;;;;;;0.50;0.50;;;;;;;16.74;95.65;95798.31;5034215;28;20198;-84
2021/07/09 02:37:06;;;;;;;0.50;0.50;;;;;;;16.79;96.85;95798.47;5034725;28;20202;-83
2021/07/09 02:39:33;;;;;;;0.40;0.40;;;;;;;16.72;96.96;95801.13;5035018;28;20209;-85
2021/07/09 02:42:00;;;;;;;0.45;0.45;;;;;;;16.67;95.97;95802.75;5034046;28;20202;-84
2021/07/09 02:44:28;;;;;;;0.40;0.40;;;;;;;16.66;96.81;95807.16;5035077;28;20853;-85
2021/07/09 02:46:55;;;;;;;0.70;0.60;;;;;;;16.63;97.86;95802.38;5034413;28;20214;-84
2021/07/09 02:49:22;;;;;;;0.57;0.57;;;;;;;16.61;96.52;95801.75;5034909;28;20206;-83
2021/07/09 02:51:50;;;;;;;1.85;0.70;;;;;;;16.73;96.24;95801.94;5034742;28;20253;-84
2021/07/09 02:54:16;;;;;;;0.90;0.80;;;;;;;16.73;96.02;95799.31;5035192;28;20202;-83
2021/07/09 02:56:43;;;;;;;6.75;3.90;;;;;;;16.74;95.83;95801.69;5034033;28;20230;-85
2021/07/09 02:59:10;;;;;;;8.55;4.60;;;;;;;16.72;95.46;95795.94;5034723;28;20733;-83
2021/07/09 03:01:40;;;;;;;0.68;0.68;;;;;;;16.73;95.12;95792.31;5033288;28;20218;-83
2021/07/09 03:04:07;;;;;;;1.33;0.60;;;;;;;16.80;95.32;95797.47;5035219;28;20204;-84
2021/07/09 03:06:34;;;;;;;0.50;0.50;;;;;;;16.72;94.95;95795.94;5034160;28;20205;-83
2021/07/09 03:09:05;;;;;;;0.77;0.45;;;;;;;16.72;95.59;95795.13;5034099;28;20206;-83
2021/07/09 03:11:32;;;;;;;0.95;0.80;;;;;;;16.71;95.40;95796.94;5033476;28;20234;-84
2021/07/09 03:13:58;;;;;;;0.50;0.50;;;;;;;16.66;95.41;95799.34;5033709;28;20225;-84
2021/07/09 03:16:25;;;;;;;0.50;0.40;;;;;;;16.62;94.99;95792.16;5033477;28;20206;-85
2021/07/09 03:18:51;;;;;;;0.95;0.50;;;;;;;16.60;95.94;95802.75;5034081;28;20213;-85
2021/07/09 03:21:18;;;;;;;0.52;0.52;;;;;;;16.57;94.79;95798.75;5033438;28;20887;-84
2021/07/09 03:23:44;;;;;;;0.43;0.43;;;;;;;16.57;94.89;95793.56;5034807;28;20352;-84
2021/07/09 03:26:12;;;;;;;0.40;0.40;;;;;;;16.63;94.80;95796.34;5033976;28;20237;-83
2021/07/09 03:28:39;;;;;;;0.55;0.40;;;;;;;16.71;94.46;95794.34;5034502;28;20209;-84
2021/07/09 03:31:05;;;;;;;0.65;0.65;;;;;;;16.71;93.32;95802.13;5033827;28;20237;-84
2021/07/09 03:33:32;;;;;;;1.27;0.50;;;;;;;16.71;93.61;95807.34;5034002;28;20198;-85
2021/07/09 03:35:58;;;;;;;0.40;0.40;;;;;;;16.66;93.43;95796.75;5034119;28;20206;-82
2021/07/09 03:38:25;;;;;;;0.70;0.70;;;;;;;16.63;93.94;95802.38;5034338;28;20210;-83
2021/07/09 03:40:51;;;;;;;0.40;0.40;;;;;;;16.66;93.77;95803.75;5032906;28;20222;-84
2021/07/09 03:43:19;;;;;;;0.40;0.40;;;;;;;16.66;94.03;95806.34;5033121;28;20206;-84
2021/07/09 03:45:46;;;;;;;0.73;0.43;;;;;;;16.76;93.54;95799.69;5033760;28;20221;-85
2021/07/09 03:48:12;;;;;;;0.73;0.43;;;;;;;16.80;93.02;95805.25;5034211;28;20206;-84
2021/07/09 03:50:38;;;;;;;0.60;0.60;;;;;;;16.70;93.00;95803.13;5034084;28;20210;-83
2021/07/09 03:53:06;;;;;;;0.70;0.70;;;;;;;16.63;93.20;95815.38;5033649;28;20210;-83
2021/07/09 03:55:33;;;;;;;0.50;0.50;;;;;;;16.46;94.20;95814.22;5032613;28;20198;-83
2021/07/09 03:57:59;;;;;;;0.50;0.50;;;;;;;16.38;95.43;95812.66;5032451;28;20293;-84
2021/07/09 04:00:27;;;;;;;0.70;0.60;;;;;;;16.44;95.35;95822.22;5032575;28;20222;-84
2021/07/09 04:02:53;;;;;;;0.73;0.55;;;;;;;16.29;95.94;95818.31;5032468;28;20209;-84
2021/07/09 04:05:20;;;;;;;0.60;0.60;;;;;;;16.32;96.60;95828.28;5031940;28;20218;-84
2021/07/09 04:07:46;;;;;;;0.50;0.50;;;;;;;16.28;96.36;95817.50;5032467;28;20202;-85
2021/07/09 04:10:13;;;;;;;0.50;0.50;;;;;;;16.32;95.86;95830.88;5033136;28;20218;-84
2021/07/09 04:12:40;;;;;;;0.57;0.57;;;;;;;16.31;96.30;95827.50;5032151;28;20204;-84
2021/07/09 04:15:07;;;;;;;0.60;0.60;;;;;;;16.39;95.98;95842.03;5032298;28;20202;-84
2021/07/09 04:17:35;;;;;;;0.60;0.60;;;;;;;16.41;95.71;95835.63;5031259;28;20209;-84
2021/07/09 04:20:02;;;;;;;0.50;0.50;;;;;;;16.53;95.26;95849.59;5030239;28;20230;-84
2021/07/09 04:22:28;;;;;;;0.50;0.50;;;;;;;16.51;95.07;95840.41;5030803;28;20202;-84
2021/07/09 04:24:55;;;;;;;2.20;0.70;;;;;;;16.52;94.73;95845.41;5031332;28;20224;-84
2021/07/09 04:27:21;;;;;;;0.60;0.60;;;;;;;16.50;95.67;95851.81;5032742;28;20202;-85
2021/07/09 04:29:48;;;;;;;0.60;0.60;;;;;;;16.55;95.85;95842.34;5035950;28;20198;-83
2021/07/09 04:32:14;;;;;;;0.70;0.70;;;;;;;16.66;94.58;95847.97;5036120;28;20214;-84
2021/07/09 04:34:42;;;;;;;0.60;0.60;;;;;;;16.64;94.80;95855.16;5035596;28;20205;-85
2021/07/09 04:37:09;;;;;;;1.02;0.80;;;;;;;16.59;94.86;95847.94;5037756;28;20203;-85
2021/07/09 04:39:37;;;;;;;0.80;0.80;;;;;;;16.66;95.34;95843.56;5039530;28;20220;-84
2021/07/09 04:42:04;;;;;;;1.25;0.90;;;;;;;16.64;96.64;95852.56;5037751;28;20213;-86
2021/07/09 04:44:30;;;;;;;0.70;0.70;;;;;;;16.64;97.21;95847.34;5037969;28;20202;-84
2021/07/09 04:46:57;;;;;;;1.02;0.90;;;;;;;16.64;95.47;95855.16;5038409;28;20214;-85
2021/07/09 04:49:24;;;;;;;0.80;0.80;;;;;;;16.70;95.66;95852.53;5034824;28;20213;-83
2021/07/09 04:51:52;;;;;;;0.95;0.95;;;;;;;16.76;95.35;95840.50;5035174;28;20225;-85
2021/07/09 04:54:20;;;;;;;0.70;0.70;;;;;;;16.73;95.10;95846.13;5026896;28;20685;-83
2021/07/09 04:56:47;;;;;;;0.77;0.77;;;;;;;16.81;94.54;95844.06;5035878;28;20226;-84
2021/07/09 04:59:13;;;;;;;0.80;0.80;;;;;;;16.81;94.49;95844.06;5036985;28;20194;-84
2021/07/09 05:01:40;;;;;;;0.80;0.80;;;;;;;16.76;95.18;95848.28;5039028;28;20875;-85
2021/07/09 05:04:07;;;;;;;1.40;0.90;;;;;;;16.83;95.89;95857.66;5038794;28;20652;-85
2021/07/09 05:06:34;;;;;;;0.70;0.70;;;;;;;16.84;95.99;95848.06;5038533;28;20236;-83
2021/07/09 05:09:02;;;;;;;2.15;0.80;;;;;;;16.77;96.31;95863.69;5038449;28;20198;-83
2021/07/09 05:11:28;;;;;;;0.77;0.77;;;;;;;16.69;96.46;95870.94;5038038;28;20233;-85
2021/07/09 05:13:54;;;;;;;0.98;0.90;;;;;;;16.70;96.19;95870.75;5037611;28;20848;-85
2021/07/09 05:16:21;;;;;;;1.17;1.08;;;;;;;16.75;95.92;95863.09;5037036;28;20245;-84
2021/07/09 05:18:47;;;;;;;2.00;0.98;;;;;;;16.67;95.77;95854.75;5037410;28;20202;-84
2021/07/09 05:21:14;;;;;;;0.90;0.90;;;;;;;16.71;96.39;95858.53;5038379;28;20222;-84
2021/07/09 05:23:40;;;;;;;0.90;0.90;;;;;;;16.63;96.46;95862.16;5035165;28;20272;-83
2021/07/09 05:26:08;;;;;;;0.90;0.90;;;;;;;16.68;96.22;95859.75;5037269;28;20226;-86
2021/07/09 05:28:35;;;;;;;1.17;1.08;;;;;;;16.74;96.06;95856.28;5033163;28;20202;-83
2021/07/09 05:31:01;;;;;;;1.00;0.90;;;;;;;16.82;95.27;95865.66;5019037;28;20253;-85
2021/07/09 05:33:28;;;;;;;0.85;0.85;;;;;;;16.74;95.08;95860.72;5018417;28;20693;-85
2021/07/09 05:35:54;;;;;;;1.20;1.10;;;;;;;16.70;95.49;95873.34;5019954;28;20199;-86
2021/07/09 05:38:21;;;;;;;1.10;1.00;;;;;;;16.85;95.58;95871.25;5015458;28;20210;-82
2021/07/09 05:40:47;;;;;;;0.90;0.90;;;;;;;16.81;94.96;95877.06;5017091;28;20229;-84
2021/07/09 05:43:16;;;;;;;0.85;0.85;;;;;;;16.84;94.38;95867.06;5018289;28;20210;-83
2021/07/09 05:45:42;;;;;;;1.00;1.00;;;;;;;16.87;94.60;95878.84;5017512;28;20226;-86
2021/07/09 05:48:09;;;;;;;0.90;0.90;;;;;;;16.98;95.02;95870.38;5016744;28;20198;-85
2021/07/09 05:50:35;;;;;;;0.80;0.80;;;;;;;16.98;93.53;95878.19;5018641;28;20254;-83
2021/07/09 05:53:02;;;;;;;0.95;0.95;;;;;;;17.04;93.72;95881.75;5018771;28;20202;-83
2021/07/09 05:55:28;;;;;;;0.80;0.80;;;;;;;16.97;93.15;95881.00;5018319;28;20198;-84
2021/07/09 05:57:55;;;;;;;1.08;1.00;;;;;;;17.03;93.04;95890.56;5029586;28;20226;-84
2021/07/09 06:00:22;;;;;;;2.55;0.70;;;;;;;17.01;91.74;95888.19;5036323;28;20218;-84
2021/07/09 06:02:49;;;;;;;0.68;0.68;;;;;;;17.02;92.08;95896.78;5035603;28;20202;-83
2021/07/09 06:05:16;;;;;;;0.70;0.70;;;;;;;16.98;92.18;95898.19;5036461;28;20229;-84
2021/07/09 06:07:42;;;;;;;0.75;0.70;;;;;;;16.96;90.15;95898.41;5035352;28;20658;-84
2021/07/09 06:10:12;;;;;;;0.82;0.82;;;;;;;16.79;92.14;95902.50;5040095;28;20214;-85
2021/07/09 06:12:44;;;;;;;1.42;0.82;;;;;;;16.78;92.15;95906.88;5035884;28;20675;-84
2021/07/09 06:15:12;;;;;;;0.65;0.65;;;;;;;16.68;92.37;95923.94;5037740;28;20214;-85
2021/07/09 06:17:40;;;;;;;0.70;0.70;;;;;;;16.69;92.82;95915.16;5038134;28;20202;-84
2021/07/09 06:20:12;;;;;;;1.02;0.90;;;;;;;16.65;92.56;95917.34;5035710;28;20210;-83
2021/07/09 06:22:39;;;;;;;0.88;0.88;;;;;;;16.57;92.91;95920.16;5038815;28;20234;-86
2021/07/09 06:25:09;;;;;;;1.13;0.95;;;;;;;16.63;93.38;95921.97;5037674;28;20209;-85
2021/07/09 06:27:38;;;;;;;0.88;0.88;;;;;;;16.64;92.74;95920.97;5039105;28;20225;-84
2021/07/09 06:30:11;;;;;;;2.28;1.00;;;;;;;16.65;93.45;95927.75;5037788;28;20876;-85
2021/07/09 06:32:46;;;;;;;1.35;1.00;;;;;;;16.63;93.64;95924.56;5035112;28;20210;-85
2021/07/09 06:35:13;;;;;;;0.80;0.80;;;;;;;16.70;93.50;95934.94;5031687;28;20705;-84
2021/07/09 06:37:40;;;;;;;1.08;0.98;;;;;;;16.63;94.36;95942.75;5031646;28;20264;-85
2021/07/09 06:40:13;;;;;;;0.90;0.90;;;;;;;16.67;95.11;95948.34;5032759;28;20226;-84
2021/07/09 06:42:47;;;;;;;1.00;1.00;;;;;;;16.67;94.73;95943.16;5033641;28;20724;-85
2021/07/09 06:45:35;;;;;;;1.05;0.90;;;;;;;16.72;95.01;95944.16;5033792;28;20264;-85
2021/07/09 06:48:03;;;;;;;1.00;1.00;;;;;;;16.68;94.79;95966.34;5037660;28;20202;-83
2021/07/09 06:50:35;;;;;;;0.90;0.90;;;;;;;16.69;95.44;95956.75;5038560;28;20685;-83
2021/07/09 06:53:05;;;;;;;1.10;1.00;;;;;;;16.68;94.94;95962.97;5037700;28;20208;-84
2021/07/09 06:55:33;;;;;;;1.27;1.00;;;;;;;16.66;95.52;95963.16;5036852;28;20224;-84
2021/07/09 06:58:06;;;;;;;1.10;1.10;;;;;;;16.75;95.30;95959.31;5035603;28;20210;-84
2021/07/09 07:00:33;;;;;;;1.13;1.13;;;;;;;16.76;96.18;95971.31;5034204;28;20237;-84
2021/07/09 07:02:59;;;;;;;1.02;1.02;;;;;;;16.69;96.51;95967.94;5034793;28;20221;-84
2021/07/09 07:05:27;;;;;;;1.67;1.17;;;;;;;16.66;97.59;95972.75;5036828;28;20252;-85
2021/07/09 07:07:54;;;;;;;1.30;1.20;;;;;;;16.56;96.83;95971.34;5036615;28;20692;-86
2021/07/09 07:10:20;;;;;;;1.40;1.30;;;;;;;16.57;97.30;95969.53;5035331;28;20580;-83
2021/07/09 07:12:47;;;;;;;1.20;1.10;;;;;;;16.58;98.23;95977.13;5035798;28;20209;-83
2021/07/09 07:15:14;;;;;;;1.30;1.20;;;;;;;16.41;99.77;95978.56;5034455;28;20202;-83
2021/07/09 07:17:41;;;;;;;1.20;1.20;;;;;;;16.35;100.00;95981.22;5035251;28;20744;-83
2021/07/09 07:20:09;;;;;;;1.40;1.30;;;;;;;16.36;100.00;95980.19;5032275;28;20225;-85
2021/07/09 07:22:39;;;;;;;1.20;1.10;;;;;;;16.40;100.00;95970.97;5033165;28;20198;-84
2021/07/09 07:25:07;;;;;;;1.20;1.10;;;;;;;16.43;99.48;95981.78;5036313;28;20213;-83
2021/07/09 07:27:34;;;;;;;1.10;1.10;;;;;;;16.48;99.59;95983.78;5036676;28;20221;-85
2021/07/09 07:30:00;;;;;;;1.15;1.13;;;;;;;16.62;99.43;95976.72;5036154;28;20241;-84
2021/07/09 07:32:27;;;;;;;1.48;1.25;;;;;;;16.66;99.08;95985.75;5036005;28;20205;-83
2021/07/09 07:34:54;;;;;;;1.50;1.40;;;;;;;16.71;99.78;95989.34;5035974;28;20268;-82
2021/07/09 07:37:21;;;;;;;2.75;1.40;;;;;;;16.75;99.93;95987.13;5036062;28;20198;-85
2021/07/09 07:39:49;;;;;;;1.30;1.30;;;;;;;16.87;99.84;95988.91;5035780;28;20297;-83
2021/07/09 07:42:16;;;;;;;1.42;1.30;;;;;;;16.88;97.69;95992.28;5035864;28;20202;-84
2021/07/09 07:44:42;;;;;;;1.85;1.30;;;;;;;16.88;99.42;95992.28;5036001;28;20198;-84
2021/07/09 07:47:09;;;;;;;1.40;1.30;;;;;;;16.97;99.00;95995.44;5036750;28;20222;-85
2021/07/09 07:49:36;;;;;;;1.77;1.40;;;;;;;16.87;98.01;95991.50;5035290;28;20205;-85
2021/07/09 07:52:03;;;;;;;1.48;1.38;;;;;;;16.81;98.43;95983.72;5036870;28;20206;-87
2021/07/09 07:54:30;;;;;;;1.40;1.30;;;;;;;16.75;98.80;95998.31;5037135;28;20241;-83
2021/07/09 07:56:59;;;;;;;1.70;1.60;;;;;;;16.66;99.65;95996.97;5035713;28;20234;-84
2021/07/09 07:59:28;;;;;;;1.45;1.35;;;;;;;16.66;100.00;95994.34;5035430;28;20197;-83
2021/07/09 08:01:55;;;;;;;1.50;1.40;;;;;;;16.63;100.00;95997.34;5035036;28;20308;-84
2021/07/09 08:04:22;;;;;;;1.73;1.50;;;;;;;16.80;100.00;95995.91;5035099;28;20232;-86
2021/07/09 08:06:48;;;;;;;1.60;1.50;;;;;;;16.84;99.59;95999.69;5036620;28;20232;-83
2021/07/09 08:09:15;;;;;;;1.80;1.70;;;;;;;16.73;99.73;95995.16;5037196;28;20213;-85
2021/07/09 08:11:41;;;;;;;1.40;1.30;;;;;;;16.81;100.00;95996.72;5036317;28;20222;-84
2021/07/09 08:14:09;;;;;;;1.33;1.30;;;;;;;16.69;99.52;95996.56;5034450;28;20202;-84
2021/07/09 08:16:36;;;;;;;1.63;1.52;;;;;;;16.73;100.00;96002.16;5037248;28;20194;-86
2021/07/09 08:19:03;;;;;;;1.90;1.50;;;;;;;16.74;100.00;96003.75;5036469;28;20230;-90
2021/07/09 08:21:29;;;;;;;1.60;1.50;;;;;;;16.77;100.00;96005.91;5036329;28;20721;-86
2021/07/09 08:23:56;;;;;;;1.77;1.67;;;;;;;16.85;100.00;96009.09;5036795;28;20198;-85
2021/07/09 08:26:26;;;;;;;1.83;1.50;;;;;;;16.85;100.00;96010.91;5034051;28;20228;-85
2021/07/09 08:28:53;;;;;;;1.30;1.20;;;;;;;16.77;100.00;95998.13;5036829;28;20198;-84
2021/07/09 08:31:22;;;;;;;1.50;1.40;;;;;;;16.74;100.00;96011.56;5036676;28;20230;-84
2021/07/09 08:33:48;;;;;;;1.20;1.20;;;;;;;16.76;100.00;96001.72;5037874;28;20198;-88
2021/07/09 08:36:23;;;;;;;2.03;1.60;;;;;;;16.80;100.00;96014.13;5033785;28;20435;-84
2021/07/09 08:38:50;;;;;;;1.48;1.38;;;;;;;16.84;100.00;96007.50;5029143;28;20190;-85
2021/07/09 08:41:51;;;;;;;1.73;1.63;;;;;;;16.89;100.00;96015.50;5029507;28;20375;-86
2021/07/09 08:44:18;;;;;;;1.40;1.30;;;;;;;16.79;100.00;96019.53;5034038;28;20206;-86
2021/07/09 08:46:46;;;;;;;1.20;1.20;;;;;;;16.72;100.00;96019.56;5035457;28;20222;-85
2021/07/09 08:49:15;;;;;;;1.60;1.50;;;;;;;16.55;100.00;96023.53;5035721;28;20225;-85
2021/07/09 08:51:42;;;;;;;1.60;1.50;;;;;;;16.54;100.00;96016.75;5035706;28;20250;-84
2021/07/09 08:54:11;;;;;;;1.45;1.30;;;;;;;16.45;100.00;96029.16;5035201;28;20205;-89
2021/07/09 08:56:37;;;;;;;1.10;1.05;;;;;;;16.52;100.00;96014.38;5034719;28;20226;-83
2021/07/09 08:59:04;;;;;;;1.33;1.23;;;;;;;16.67;100.00;96019.34;5036796;28;20245;-86
2021/07/09 09:01:30;;;;;;;1.50;1.40;;;;;;;16.84;100.00;96028.31;5032144;28;20721;-82
2021/07/09 09:04:05;;;;;;;1.50;1.40;;;;;;;16.91;100.00;96031.72;5031217;28;20213;-87
2021/07/09 09:06:32;;;;;;;2.42;1.60;;;;;;;16.90;100.00;96032.72;5035278;28;20704;-85
2021/07/09 09:08:59;;;;;;;1.60;1.50;;;;;;;16.87;100.00;96040.13;5033845;28;20293;-86
2021/07/09 09:11:25;;;;;;;1.80;1.40;;;;;;;17.01;100.00;96040.88;5034268;28;20251;-85
2021/07/09 09:13:52;;;;;;;1.90;1.60;;;;;;;17.02;100.00;96040.66;5037224;28;20289;-85
2021/07/09 09:16:21;;;;;;;1.60;1.50;;;;;;;17.07;100.00;96043.47;5034309;28;20202;-84
2021/07/09 09:18:49;;;;;;;1.85;1.75;;;;;;;17.16;100.00;96050.00;5038007;28;20206;-83
2021/07/09 09:21:19;;;;;;;1.40;1.27;;;;;;;17.20;100.00;96056.41;5039598;28;20229;-83
2021/07/09 09:23:54;;;;;;;1.50;1.40;;;;;;;17.32;100.00;96047.97;5039171;28;20208;-85
2021/07/09 09:26:42;;;;;;;2.17;1.30;;;;;;;17.38;100.00;96057.53;5038881;28;20248;-87
2021/07/09 09:29:12;;;;;;;1.27;1.20;;;;;;;17.47;100.00;96062.31;5038794;28;20261;-84
2021/07/09 09:31:39;;;;;;;1.50;1.40;;;;;;;17.48;98.97;96069.13;5038445;28;20230;-84
2021/07/09 09:34:06;;;;;;;1.00;1.00;;;;;;;17.56;99.07;96068.06;5039625;28;20286;-82
2021/07/09 09:36:35;;;;;;;1.35;1.20;;;;;;;17.57;99.35;96069.66;5038919;28;20198;-86
2021/07/09 09:39:03;;;;;;;1.48;1.38;;;;;;;17.58;98.77;96068.66;5039381;28;20270;-84
2021/07/09 09:41:30;;;;;;;1.90;1.63;;;;;;;17.63;99.52;96068.84;5039982;28;20219;-84
2021/07/09 09:44:11;;;;;;;2.05;1.40;;;;;;;17.69;99.32;96073.25;5039584;28;20206;-83
2021/07/09 09:46:38;;;;;;;2.90;1.40;;;;;;;17.61;98.68;96078.66;5039428;28;20226;-85
2021/07/09 09:49:07;;;;;;;1.42;1.33;;;;;;;17.45;96.90;96077.34;5038285;28;20718;-84
2021/07/09 09:51:37;;;;;;;1.55;1.45;;;;;;;17.45;98.78;96082.56;5037888;28;20637;-84
2021/07/09 09:54:05;;;;;;;2.58;1.60;;;;;;;17.61;99.44;96083.88;5038430;28;20320;-83
2021/07/09 09:56:34;;;;;;;1.80;1.70;;;;;;;17.67;100.00;96087.50;5030020;28;20228;-87
2021/07/09 09:59:19;;;;;;;1.98;1.85;;;;;;;17.56;99.99;96088.91;5014532;28;20206;-85
2021/07/09 10:01:51;;;;;;;2.25;1.83;;;;;;;17.52;100.00;96091.13;5029357;28;20233;-86
2021/07/09 10:04:18;;;;;;;1.80;1.70;;;;;;;17.51;100.00;96088.75;5033257;28;20194;-83
2021/07/09 10:06:46;;;;;;;1.92;1.80;;;;;;;17.60;100.00;96083.06;5033407;28;20222;-84
2021/07/09 10:09:14;;;;;;;1.80;1.70;;;;;;;17.55;99.54;96084.69;5036292;28;20202;-84
2021/07/09 10:11:41;;;;;;;2.25;1.60;;;;;;;17.54;99.34;96085.69;5032531;28;20222;-84
2021/07/09 10:14:11;;;;;;;1.90;1.80;;;;;;;17.68;99.83;96089.09;5028299;28;20198;-83
2021/07/09 10:16:42;;;;;;;2.13;1.80;;;;;;;17.63;98.67;96091.50;5029851;28;20202;-85
2021/07/09 10:19:11;;;;;;;1.80;1.70;;;;;;;17.65;98.40;96097.31;5035876;28;20209;-83
2021/07/09 10:21:38;;;;;;;2.97;1.90;;;;;;;17.59;98.39;96097.09;5036689;28;20223;-84
2021/07/09 10:24:08;;;;;;;2.25;2.05;;;;;;;17.51;98.79;96102.53;5036847;28;20204;-83
2021/07/09 10:26:40;;;;;;;1.88;1.77;;;;;;;17.57;99.32;96106.91;5035710;28;20221;-83
2021/07/09 10:29:10;;;;;;;2.05;1.95;;;;;;;17.55;98.87;96102.94;5034681;28;20206;-84
2021/07/09 10:31:37;;;;;;;2.13;1.98;;;;;;;17.43;98.50;96109.78;5035168;28;20295;-83
2021/07/09 10:34:26;;;;;;;2.08;1.98;;;;;;;17.41;99.38;96110.00;5034987;28;20213;-87
2021/07/09 10:36:54;;;;;;;2.28;2.10;;;;;;;17.37;99.23;96119.22;5034949;28;20697;-84
2021/07/09 10:39:45;;;;;;;2.40;2.20;;;;;;;17.25;99.60;96116.47;5037655;28;20193;-82
2021/07/09 10:42:18;;;;;;;3.47;2.22;;;;;;;17.18;100.00;96112.28;5055444;28;20245;-83
2021/07/09 10:45:20;;;;;;;2.53;2.33;;;;;;;17.25;100.00;96111.25;5054772;28;20274;-85
2021/07/09 10:47:49;;;;;;;3.35;2.85;;;;;;;17.25;100.00;96116.47;5035098;28;20308;-84
2021/07/09 10:50:18;;;;;;;3.03;2.75;;;;;;;17.31;100.00;96117.47;5035120;28;20419;-84
2021/07/09 10:52:53;;;;;;;2.80;2.60;;;;;;;17.36;100.00;96114.22;5025106;28;20195;-85
2021/07/09 10:56:14;;;;;;;3.10;2.90;;;;;;;17.28;100.00;96125.66;5014857;28;20260;-82
2021/07/09 10:58:42;;;;;;;3.33;3.00;;;;;;;17.36;100.00;96120.22;5016482;28;20238;-83
2021/07/09 11:01:18;;;;;;;3.70;3.20;;;;;;;17.38;100.00;96125.22;5033826;28;20631;-86
2021/07/09 11:03:48;;;;;;;3.80;2.92;;;;;;;17.40;100.00;96120.63;5034135;28;20202;-82
2021/07/09 11:06:17;;;;;;;4.43;3.05;;;;;;;17.47;100.00;96118.78;5025612;28;20202;-87
2021/07/09 11:09:01;;;;;;;3.63;2.90;;;;;;;17.52;100.00;96127.56;5032941;28;20362;-89
2021/07/09 11:11:44;;;;;;;3.88;3.20;;;;;;;17.46;100.00;96115.41;5033531;28;20325;-84
2021/07/09 11:14:13;;;;;;;3.60;3.33;;;;;;;17.54;100.00;96119.56;5030684;28;20206;-84
2021/07/09 11:16:41;;;;;;;3.47;3.17;;;;;;;17.54;100.00;96124.75;5029831;28;20198;-84
2021/07/09 11:19:10;;;;;;;3.80;3.42;;;;;;;17.57;100.00;96122.56;5032759;28;20208;-85
2021/07/09 11:22:04;;;;;;;5.40;4.07;;;;;;;17.57;100.00;96119.94;5032762;28;20616;-83
2021/07/09 11:24:34;;;;;;;4.68;3.60;;;;;;;17.49;100.00;96133.22;5032514;28;20202;-82
2021/07/09 11:27:04;;;;;;;4.07;3.78;;;;;;;17.46;100.00;96123.22;5032385;28;20218;-81
2021/07/09 11:29:33;;;;;;;4.68;3.63;;;;;;;17.56;100.00;96126.16;5031887;28;20202;-85
2021/07/09 11:32:01;;;;;;;4.00;3.70;;;;;;;17.64;100.00;96130.38;5032894;28;20616;-86
2021/07/09 11:34:31;;;;;;;4.10;3.63;;;;;;;17.60;100.00;96129.94;5033510;28;20209;-86
2021/07/09 11:37:01;;;;;;;3.28;3.08;;;;;;;17.64;100.00;96124.34;5031995;28;20213;-86
2021/07/09 11:39:30;;;;;;;3.75;3.45;;;;;;;17.66;100.00;96125.75;5034743;28;20488;-86